sensor_id;sensor_type;location;lat;lon;timestamp;pressure;altitude;pressure_sealevel;temperature;humidity
77003;BME280;65939;50.060;14.288;2023-05-16T00:00:18;96724.63;;;11.91;90.70
77003;BME280;65939;50.060;14.288;2023-05-16T00:02:19;96731.50;;;11.92;90.86
77003;BME280;65939;50.060;14.288;2023-05-16T00:04:20;96731.66;;;11.90;91.16
77003;BME280;65939;50.060;14.288;2023-05-16T00:06:22;96731.03;;;11.88;91.07
77003;BME280;65939;50.060;14.288;2023-05-16T00:08:22;96733.66;;;11.88;91.12
77003;BME280;65939;50.060;14.288;2023-05-16T00:10:23;96728.41;;;11.88;91.05
77003;BME280;65939;50.060;14.288;2023-05-16T00:12:24;96737.25;;;11.87;91.25
77003;BME280;65939;50.060;14.288;2023-05-16T00:14:25;96741.03;;;11.85;90.55
77003;BME280;65939;50.060;14.288;2023-05-16T00:16:26;96738.56;;;11.83;90.74
77003;BME280;65939;50.060;14.288;2023-05-16T00:18:29;96743.97;;;11.82;91.73
77003;BME280;65939;50.060;14.288;2023-05-16T00:20:30;96736.47;;;11.79;91.97
77003;BME280;65939;50.060;14.288;2023-05-16T00:22:31;96731.13;;;11.72;91.40
77003;BME280;65939;50.060;14.288;2023-05-16T00:24:33;96730.69;;;11.68;92.01
77003;BME280;65939;50.060;14.288;2023-05-16T00:26:33;96736.78;;;11.61;91.49
77003;BME280;65939;50.060;14.288;2023-05-16T00:28:34;96739.09;;;11.56;92.30
77003;BME280;65939;50.060;14.288;2023-05-16T00:30:35;96744.06;;;11.50;91.49
77003;BME280;65939;50.060;14.288;2023-05-16T00:32:36;96744.59;;;11.46;92.73
77003;BME280;65939;50.060;14.288;2023-05-16T00:34:36;96745.09;;;11.41;93.00
77003;BME280;65939;50.060;14.288;2023-05-16T00:36:37;96742.19;;;11.36;93.57
77003;BME280;65939;50.060;14.288;2023-05-16T00:38:38;96743.53;;;11.32;92.71
77003;BME280;65939;50.060;14.288;2023-05-16T00:40:38;96748.09;;;11.30;93.65
77003;BME280;65939;50.060;14.288;2023-05-16T00:42:41;96758.75;;;11.29;93.63
77003;BME280;65939;50.060;14.288;2023-05-16T00:44:41;96757.28;;;11.26;93.17
77003;BME280;65939;50.060;14.288;2023-05-16T00:46:42;96753.22;;;11.23;93.01
77003;BME280;65939;50.060;14.288;2023-05-16T00:48:43;96751.59;;;11.22;93.11
77003;BME280;65939;50.060;14.288;2023-05-16T00:50:44;96756.34;;;11.19;93.70
77003;BME280;65939;50.060;14.288;2023-05-16T00:52:44;96753.25;;;11.15;92.81
77003;BME280;65939;50.060;14.288;2023-05-16T00:54:45;96752.59;;;11.13;93.77
77003;BME280;65939;50.060;14.288;2023-05-16T00:56:46;96754.13;;;11.08;94.14
77003;BME280;65939;50.060;14.288;2023-05-16T00:58:47;96753.66;;;11.04;94.08
77003;BME280;65939;50.060;14.288;2023-05-16T01:00:48;96748.78;;;11.01;94.86
77003;BME280;65939;50.060;14.288;2023-05-16T01:02:50;96746.69;;;10.96;94.93
77003;BME280;65939;50.060;14.288;2023-05-16T01:04:53;96746.03;;;10.94;94.25
77003;BME280;65939;50.060;14.288;2023-05-16T01:06:56;96745.41;;;10.92;95.11
77003;BME280;65939;50.060;14.288;2023-05-16T01:08:57;96746.56;;;10.90;95.09
77003;BME280;65939;50.060;14.288;2023-05-16T01:11:31;96756.19;;;10.89;94.88
77003;BME280;65939;50.060;14.288;2023-05-16T01:20:27;96755.56;;;10.79;95.78
77003;BME280;65939;50.060;14.288;2023-05-16T01:27:22;96761.94;;;10.76;95.85
77003;BME280;65939;50.060;14.288;2023-05-16T01:29:24;96760.13;;;10.77;95.40
77003;BME280;65939;50.060;14.288;2023-05-16T01:31:25;96757.38;;;10.78;95.85
77003;BME280;65939;50.060;14.288;2023-05-16T01:33:25;96755.56;;;10.79;95.54
77003;BME280;65939;50.060;14.288;2023-05-16T01:35:27;96758.19;;;10.79;95.18
77003;BME280;65939;50.060;14.288;2023-05-16T01:37:36;96764.03;;;10.81;95.66
77003;BME280;65939;50.060;14.288;2023-05-16T01:39:46;96764.69;;;10.83;95.44
77003;BME280;65939;50.060;14.288;2023-05-16T01:41:58;96763.69;;;10.84;95.25
77003;BME280;65939;50.060;14.288;2023-05-16T01:44:06;96758.13;;;10.87;94.56
77003;BME280;65939;50.060;14.288;2023-05-16T01:46:14;96761.41;;;10.89;94.62
77003;BME280;65939;50.060;14.288;2023-05-16T01:48:21;96753.25;;;10.92;94.51
77003;BME280;65939;50.060;14.288;2023-05-16T01:50:24;96762.69;;;10.93;94.73
77003;BME280;65939;50.060;14.288;2023-05-16T01:52:44;96767.91;;;10.93;94.98
77003;BME280;65939;50.060;14.288;2023-05-16T01:54:47;96762.03;;;10.91;94.58
77003;BME280;65939;50.060;14.288;2023-05-16T01:56:56;96764.03;;;10.89;94.12
77003;BME280;65939;50.060;14.288;2023-05-16T01:58:58;96756.53;;;10.86;94.19
77003;BME280;65939;50.060;14.288;2023-05-16T02:01:01;96756.19;;;10.81;94.85
77003;BME280;65939;50.060;14.288;2023-05-16T02:03:03;96748.06;;;10.76;94.62
77003;BME280;65939;50.060;14.288;2023-05-16T02:05:04;96752.03;;;10.72;94.47
77003;BME280;65939;50.060;14.288;2023-05-16T02:07:04;96752.53;;;10.67;94.82
77003;BME280;65939;50.060;14.288;2023-05-16T02:09:05;96750.41;;;10.63;94.16
77003;BME280;65939;50.060;14.288;2023-05-16T02:11:06;96749.31;;;10.57;95.06
77003;BME280;65939;50.060;14.288;2023-05-16T02:13:06;96758.59;;;10.51;94.82
77003;BME280;65939;50.060;14.288;2023-05-16T02:15:07;96757.00;;;10.50;94.57
77003;BME280;65939;50.060;14.288;2023-05-16T02:17:09;96753.91;;;10.47;94.82
77003;BME280;65939;50.060;14.288;2023-05-16T02:19:11;96761.88;;;10.45;94.85
77003;BME280;65939;50.060;14.288;2023-05-16T02:21:12;96762.88;;;10.44;95.28
77003;BME280;65939;50.060;14.288;2023-05-16T02:23:12;96771.69;;;10.43;94.73
77003;BME280;65939;50.060;14.288;2023-05-16T02:25:14;96770.88;;;10.43;95.02
77003;BME280;65939;50.060;14.288;2023-05-16T02:27:15;96770.88;;;10.43;94.61
77003;BME280;65939;50.060;14.288;2023-05-16T02:29:17;96784.88;;;10.42;94.67
77003;BME280;65939;50.060;14.288;2023-05-16T02:31:27;96781.47;;;10.41;94.61
77003;BME280;65939;50.060;14.288;2023-05-16T02:33:29;96788.50;;;10.41;95.23
77003;BME280;65939;50.060;14.288;2023-05-16T02:35:30;96784.25;;;10.40;94.87
77003;BME280;65939;50.060;14.288;2023-05-16T02:37:30;96773.81;;;10.40;94.51
77003;BME280;65939;50.060;14.288;2023-05-16T02:39:31;96776.75;;;10.37;94.36
77003;BME280;65939;50.060;14.288;2023-05-16T02:41:32;96773.66;;;10.33;93.98
77003;BME280;65939;50.060;14.288;2023-05-16T02:43:33;96779.41;;;10.28;93.52
77003;BME280;65939;50.060;14.288;2023-05-16T02:45:33;96775.78;;;10.21;93.50
77003;BME280;65939;50.060;14.288;2023-05-16T02:47:34;96777.06;;;10.17;93.79
77003;BME280;65939;50.060;14.288;2023-05-16T02:49:35;96768.13;;;10.12;93.82
77003;BME280;65939;50.060;14.288;2023-05-16T02:51:36;96762.75;;;10.05;94.09
77003;BME280;65939;50.060;14.288;2023-05-16T02:53:37;96764.22;;;9.99;93.71
77003;BME280;65939;50.060;14.288;2023-05-16T02:55:37;96767.19;;;9.96;94.42
77003;BME280;65939;50.060;14.288;2023-05-16T02:57:38;96776.16;;;9.94;94.58
77003;BME280;65939;50.060;14.288;2023-05-16T02:59:39;96787.56;;;9.93;94.99
77003;BME280;65939;50.060;14.288;2023-05-16T03:01:39;96781.69;;;9.91;94.71
77003;BME280;65939;50.060;14.288;2023-05-16T03:03:40;96785.91;;;9.92;95.44
77003;BME280;65939;50.060;14.288;2023-05-16T03:05:41;96789.19;;;9.94;95.35
77003;BME280;65939;50.060;14.288;2023-05-16T03:07:42;96787.22;;;9.96;95.48
77003;BME280;65939;50.060;14.288;2023-05-16T03:09:42;96786.06;;;9.98;95.21
77003;BME280;65939;50.060;14.288;2023-05-16T03:11:43;96791.78;;;10.02;96.05
77003;BME280;65939;50.060;14.288;2023-05-16T03:13:43;96796.50;;;10.06;95.89
77003;BME280;65939;50.060;14.288;2023-05-16T03:15:44;96790.00;;;10.11;95.82
77003;BME280;65939;50.060;14.288;2023-05-16T03:17:45;96787.03;;;10.14;95.51
77003;BME280;65939;50.060;14.288;2023-05-16T03:19:46;96787.50;;;10.17;95.84
77003;BME280;65939;50.060;14.288;2023-05-16T03:21:46;96788.84;;;10.21;95.61
77003;BME280;65939;50.060;14.288;2023-05-16T03:23:47;96797.47;;;10.22;95.23
77003;BME280;65939;50.060;14.288;2023-05-16T03:25:48;96790.28;;;10.24;94.69
77003;BME280;65939;50.060;14.288;2023-05-16T03:27:49;96798.91;;;10.24;94.76
77003;BME280;65939;50.060;14.288;2023-05-16T03:29:50;96797.00;;;10.26;95.14
77003;BME280;65939;50.060;14.288;2023-05-16T03:31:50;96795.19;;;10.27;94.61
77003;BME280;65939;50.060;14.288;2023-05-16T03:33:51;96797.81;;;10.27;94.68
77003;BME280;65939;50.060;14.288;2023-05-16T03:35:52;96808.25;;;10.27;94.63
77003;BME280;65939;50.060;14.288;2023-05-16T03:37:53;96809.06;;;10.27;94.71
77003;BME280;65939;50.060;14.288;2023-05-16T03:39:54;96807.09;;;10.29;94.14
77003;BME280;65939;50.060;14.288;2023-05-16T03:41:55;96815.41;;;10.33;94.53
77003;BME280;65939;50.060;14.288;2023-05-16T03:43:56;96816.72;;;10.37;95.01
77003;BME280;65939;50.060;14.288;2023-05-16T03:45:57;96824.22;;;10.40;95.00
77003;BME280;65939;50.060;14.288;2023-05-16T03:47:58;96826.31;;;10.45;94.58
77003;BME280;65939;50.060;14.288;2023-05-16T03:49:58;96827.78;;;10.47;94.30
77003;BME280;65939;50.060;14.288;2023-05-16T03:51:59;96824.03;;;10.50;94.15
77003;BME280;65939;50.060;14.288;2023-05-16T03:54:00;96829.75;;;10.53;94.70
77003;BME280;65939;50.060;14.288;2023-05-16T03:56:01;96833.47;;;10.59;94.54
77003;BME280;65939;50.060;14.288;2023-05-16T03:58:02;96832.31;;;10.62;94.45
77003;BME280;65939;50.060;14.288;2023-05-16T04:00:03;96836.06;;;10.67;93.32
77003;BME280;65939;50.060;14.288;2023-05-16T04:02:07;96837.19;;;10.73;93.71
77003;BME280;65939;50.060;14.288;2023-05-16T04:04:08;96848.91;;;10.77;94.25
77003;BME280;65939;50.060;14.288;2023-05-16T04:06:08;96848.25;;;10.83;93.39
77003;BME280;65939;50.060;14.288;2023-05-16T04:08:09;96843.50;;;10.87;93.49
77003;BME280;65939;50.060;14.288;2023-05-16T04:10:10;96854.09;;;10.93;93.05
77003;BME280;65939;50.060;14.288;2023-05-16T04:12:11;96850.16;;;10.97;93.29
77003;BME280;65939;50.060;14.288;2023-05-16T04:14:12;96848.84;;;11.01;93.92
77003;BME280;65939;50.060;14.288;2023-05-16T04:16:12;96848.31;;;11.06;93.55
77003;BME280;65939;50.060;14.288;2023-05-16T04:18:13;96847.84;;;11.11;93.47
77003;BME280;65939;50.060;14.288;2023-05-16T04:20:14;96855.16;;;11.15;92.79
77003;BME280;65939;50.060;14.288;2023-05-16T04:22:14;96846.81;;;11.20;93.17
77003;BME280;65939;50.060;14.288;2023-05-16T04:24:15;96852.97;;;11.27;93.09
77003;BME280;65939;50.060;14.288;2023-05-16T04:26:16;96855.91;;;11.32;92.22
77003;BME280;65939;50.060;14.288;2023-05-16T04:28:17;96862.09;;;11.39;92.25
77003;BME280;65939;50.060;14.288;2023-05-16T04:30:18;96857.13;;;11.44;92.51
77003;BME280;65939;50.060;14.288;2023-05-16T04:32:18;96864.31;;;11.50;91.98
77003;BME280;65939;50.060;14.288;2023-05-16T04:34:19;96863.63;;;11.57;92.27
77003;BME280;65939;50.060;14.288;2023-05-16T04:36:20;96865.53;;;11.63;91.81
77003;BME280;65939;50.060;14.288;2023-05-16T04:38:21;96862.88;;;11.71;92.26
77003;BME280;65939;50.060;14.288;2023-05-16T04:40:22;96860.22;;;11.79;92.96
77003;BME280;65939;50.060;14.288;2023-05-16T04:42:24;96865.41;;;11.87;92.58
77003;BME280;65939;50.060;14.288;2023-05-16T04:44:25;96860.16;;;11.95;92.49
77003;BME280;65939;50.060;14.288;2023-05-16T04:46:26;96863.50;;;12.04;92.63
77003;BME280;65939;50.060;14.288;2023-05-16T04:48:26;96866.84;;;12.13;92.78
77003;BME280;65939;50.060;14.288;2023-05-16T04:50:27;96865.16;;;12.20;92.38
77003;BME280;65939;50.060;14.288;2023-05-16T04:52:28;96865.28;;;12.27;92.35
77003;BME280;65939;50.060;14.288;2023-05-16T04:54:28;96871.78;;;12.31;91.83
77003;BME280;65939;50.060;14.288;2023-05-16T04:56:29;96864.22;;;12.36;91.31
77003;BME280;65939;50.060;14.288;2023-05-16T04:58:30;96862.69;;;12.41;91.33
77003;BME280;65939;50.060;14.288;2023-05-16T05:00:32;96864.13;;;12.44;91.65
77003;BME280;65939;50.060;14.288;2023-05-16T05:02:33;96860.72;;;12.43;92.23
77003;BME280;65939;50.060;14.288;2023-05-16T05:04:34;96867.41;;;12.46;91.45
77003;BME280;65939;50.060;14.288;2023-05-16T05:06:35;96877.34;;;12.51;92.29
77003;BME280;65939;50.060;14.288;2023-05-16T05:08:36;96876.19;;;12.53;92.09
77003;BME280;65939;50.060;14.288;2023-05-16T05:10:36;96878.09;;;12.59;91.16
77003;BME280;65939;50.060;14.288;2023-05-16T05:12:37;96880.16;;;12.64;91.46
77003;BME280;65939;50.060;14.288;2023-05-16T05:14:38;96881.63;;;12.66;91.91
77003;BME280;65939;50.060;14.288;2023-05-16T05:16:38;96879.47;;;12.70;90.82
77003;BME280;65939;50.060;14.288;2023-05-16T05:18:39;96874.50;;;12.75;91.21
77003;BME280;65939;50.060;14.288;2023-05-16T05:20:41;96881.00;;;12.79;92.03
77003;BME280;65939;50.060;14.288;2023-05-16T05:22:41;96875.19;;;12.84;91.10
77003;BME280;65939;50.060;14.288;2023-05-16T05:24:42;96877.31;;;12.88;90.93
77003;BME280;65939;50.060;14.288;2023-05-16T05:26:43;96881.00;;;12.94;90.86
77003;BME280;65939;50.060;14.288;2023-05-16T05:28:43;96875.41;;;12.97;91.08
77003;BME280;65939;50.060;14.288;2023-05-16T05:30:44;96870.00;;;12.99;91.05
77003;BME280;65939;50.060;14.288;2023-05-16T05:32:46;96870.25;;;13.04;90.18
77003;BME280;65939;50.060;14.288;2023-05-16T05:34:46;96864.00;;;13.05;90.49
77003;BME280;65939;50.060;14.288;2023-05-16T05:36:47;96865.72;;;13.12;91.23
77003;BME280;65939;50.060;14.288;2023-05-16T05:38:48;96860.75;;;13.17;90.32
77003;BME280;65939;50.060;14.288;2023-05-16T05:40:49;96864.84;;;13.20;90.38
77003;BME280;65939;50.060;14.288;2023-05-16T05:42:49;96862.28;;;13.27;91.09
77003;BME280;65939;50.060;14.288;2023-05-16T05:44:50;96860.41;;;13.35;90.46
77003;BME280;65939;50.060;14.288;2023-05-16T05:46:51;96855.69;;;13.46;90.42
77003;BME280;65939;50.060;14.288;2023-05-16T05:48:52;96864.31;;;13.61;89.99
77003;BME280;65939;50.060;14.288;2023-05-16T05:50:53;96858.59;;;13.72;89.98
77003;BME280;65939;50.060;14.288;2023-05-16T05:52:54;96863.34;;;13.83;88.90
77003;BME280;65939;50.060;14.288;2023-05-16T05:54:54;96863.41;;;13.90;88.50
77003;BME280;65939;50.060;14.288;2023-05-16T05:56:56;96849.34;;;13.98;88.30
77003;BME280;65939;50.060;14.288;2023-05-16T05:58:57;96846.53;;;13.99;87.73
77003;BME280;65939;50.060;14.288;2023-05-16T06:00:58;96848.59;;;14.04;88.70
77003;BME280;65939;50.060;14.288;2023-05-16T06:02:58;96851.94;;;14.12;88.29
77003;BME280;65939;50.060;14.288;2023-05-16T06:04:59;96854.22;;;14.22;88.01
77003;BME280;65939;50.060;14.288;2023-05-16T06:07:00;96863.31;;;14.26;87.50
77003;BME280;65939;50.060;14.288;2023-05-16T06:09:00;96853.66;;;14.27;86.86
77003;BME280;65939;50.060;14.288;2023-05-16T06:11:01;96855.00;;;14.23;86.39
77003;BME280;65939;50.060;14.288;2023-05-16T06:13:02;96855.22;;;14.21;86.43
77003;BME280;65939;50.060;14.288;2023-05-16T06:15:03;96855.66;;;14.25;87.13
77003;BME280;65939;50.060;14.288;2023-05-16T06:17:04;96859.34;;;14.30;87.12
77003;BME280;65939;50.060;14.288;2023-05-16T06:19:05;96864.63;;;14.37;86.84
77003;BME280;65939;50.060;14.288;2023-05-16T06:21:06;96866.34;;;14.45;86.96
77003;BME280;65939;50.060;14.288;2023-05-16T06:23:07;96856.72;;;14.52;86.98
77003;BME280;65939;50.060;14.288;2023-05-16T06:25:08;96863.81;;;14.58;85.98
77003;BME280;65939;50.060;14.288;2023-05-16T06:27:09;96856.19;;;14.63;85.49
77003;BME280;65939;50.060;14.288;2023-05-16T06:29:09;96867.28;;;14.65;84.82
77003;BME280;65939;50.060;14.288;2023-05-16T06:31:10;96865.31;;;14.67;85.95
77003;BME280;65939;50.060;14.288;2023-05-16T06:33:11;96864.34;;;14.75;86.19
77003;BME280;65939;50.060;14.288;2023-05-16T06:35:11;96865.03;;;14.90;87.23
77003;BME280;65939;50.060;14.288;2023-05-16T06:37:12;96869.78;;;15.01;86.80
77003;BME280;65939;50.060;14.288;2023-05-16T06:39:13;96865.94;;;15.04;85.74
77003;BME280;65939;50.060;14.288;2023-05-16T06:41:13;96868.78;;;15.09;86.11
77003;BME280;65939;50.060;14.288;2023-05-16T06:43:14;96865.16;;;15.10;85.28
77003;BME280;65939;50.060;14.288;2023-05-16T06:45:15;96861.13;;;15.14;85.26
77003;BME280;65939;50.060;14.288;2023-05-16T06:47:16;96869.25;;;15.19;85.25
77003;BME280;65939;50.060;14.288;2023-05-16T06:49:16;96870.06;;;15.20;84.65
77003;BME280;65939;50.060;14.288;2023-05-16T06:51:17;96872.09;;;15.24;84.17
77003;BME280;65939;50.060;14.288;2023-05-16T06:53:18;96864.00;;;15.26;84.25
77003;BME280;65939;50.060;14.288;2023-05-16T06:55:19;96872.94;;;15.31;83.81
77003;BME280;65939;50.060;14.288;2023-05-16T06:57:20;96874.41;;;15.41;84.17
77003;BME280;65939;50.060;14.288;2023-05-16T06:59:20;96874.63;;;15.46;83.34
77003;BME280;65939;50.060;14.288;2023-05-16T07:01:21;96879.69;;;15.47;82.40
77003;BME280;65939;50.060;14.288;2023-05-16T07:03:21;96875.66;;;15.51;82.65
77003;BME280;65939;50.060;14.288;2023-05-16T07:05:22;96869.19;;;15.54;83.72
77003;BME280;65939;50.060;14.288;2023-05-16T07:07:23;96877.31;;;15.59;83.41
77003;BME280;65939;50.060;14.288;2023-05-16T07:09:23;96888.44;;;15.61;83.03
77003;BME280;65939;50.060;14.288;2023-05-16T07:11:24;96884.41;;;15.65;82.61
77003;BME280;65939;50.060;14.288;2023-05-16T07:13:25;96890.06;;;15.62;81.74
77003;BME280;65939;50.060;14.288;2023-05-16T07:15:26;96878.28;;;15.58;81.44
77003;BME280;65939;50.060;14.288;2023-05-16T07:17:27;96885.59;;;15.56;82.47
77003;BME280;65939;50.060;14.288;2023-05-16T07:19:27;96887.41;;;15.55;81.92
77003;BME280;65939;50.060;14.288;2023-05-16T07:21:28;96886.00;;;15.60;82.10
77003;BME280;65939;50.060;14.288;2023-05-16T07:23:29;96881.56;;;15.60;82.25
77003;BME280;65939;50.060;14.288;2023-05-16T07:25:30;96879.78;;;15.67;83.15
77003;BME280;65939;50.060;14.288;2023-05-16T07:27:31;96884.03;;;15.68;82.46
77003;BME280;65939;50.060;14.288;2023-05-16T07:29:32;96882.66;;;15.72;81.44
77003;BME280;65939;50.060;14.288;2023-05-16T07:31:33;96886.50;;;15.76;81.96
77003;BME280;65939;50.060;14.288;2023-05-16T07:33:33;96882.06;;;15.84;82.12
77003;BME280;65939;50.060;14.288;2023-05-16T07:35:34;96882.69;;;15.92;82.56
77003;BME280;65939;50.060;14.288;2023-05-16T07:37:35;96892.44;;;16.05;83.09
77003;BME280;65939;50.060;14.288;2023-05-16T07:39:36;96882.13;;;16.10;81.82
77003;BME280;65939;50.060;14.288;2023-05-16T07:41:36;96880.91;;;16.13;82.09
77003;BME280;65939;50.060;14.288;2023-05-16T07:43:37;96888.59;;;16.14;82.53
77003;BME280;65939;50.060;14.288;2023-05-16T07:45:38;96890.22;;;16.28;82.24
77003;BME280;65939;50.060;14.288;2023-05-16T07:47:39;96890.84;;;16.31;81.17
77003;BME280;65939;50.060;14.288;2023-05-16T07:49:39;96893.88;;;16.27;81.49
77003;BME280;65939;50.060;14.288;2023-05-16T07:51:41;96900.38;;;16.32;80.90
77003;BME280;65939;50.060;14.288;2023-05-16T07:53:42;96903.41;;;16.35;80.85
77003;BME280;65939;50.060;14.288;2023-05-16T07:55:42;96901.19;;;16.45;80.72
77003;BME280;65939;50.060;14.288;2023-05-16T07:57:43;96903.03;;;16.45;80.53
77003;BME280;65939;50.060;14.288;2023-05-16T07:59:44;96907.06;;;16.54;80.44
77003;BME280;65939;50.060;14.288;2023-05-16T08:01:45;96912.56;;;16.72;80.45
77003;BME280;65939;50.060;14.288;2023-05-16T08:03:45;96907.09;;;16.81;80.15
77003;BME280;65939;50.060;14.288;2023-05-16T08:05:47;96903.66;;;16.93;79.37
77003;BME280;65939;50.060;14.288;2023-05-16T08:07:48;96907.69;;;17.03;79.50
77003;BME280;65939;50.060;14.288;2023-05-16T08:09:49;96915.38;;;17.11;80.41
77003;BME280;65939;50.060;14.288;2023-05-16T08:11:50;96908.06;;;17.13;79.91
77003;BME280;65939;50.060;14.288;2023-05-16T08:13:50;96919.03;;;17.16;79.17
77003;BME280;65939;50.060;14.288;2023-05-16T08:15:51;96918.59;;;17.33;79.01
77003;BME280;65939;50.060;14.288;2023-05-16T08:17:56;96929.06;;;17.53;79.42
77003;BME280;65939;50.060;14.288;2023-05-16T08:19:56;96927.59;;;17.70;78.43
77003;BME280;65939;50.060;14.288;2023-05-16T08:21:58;96927.38;;;17.78;77.89
77003;BME280;65939;50.060;14.288;2023-05-16T08:23:59;96935.66;;;17.88;76.87
77003;BME280;65939;50.060;14.288;2023-05-16T08:26:00;96933.03;;;17.75;76.24
77003;BME280;65939;50.060;14.288;2023-05-16T08:28:01;96941.59;;;17.77;76.94
77003;BME280;65939;50.060;14.288;2023-05-16T08:30:02;96940.09;;;17.94;77.47
77003;BME280;65939;50.060;14.288;2023-05-16T08:32:04;96937.38;;;18.14;76.59
77003;BME280;65939;50.060;14.288;2023-05-16T08:34:05;96945.97;;;18.35;77.48
77003;BME280;65939;50.060;14.288;2023-05-16T08:36:06;96937.94;;;18.48;76.34
77003;BME280;65939;50.060;14.288;2023-05-16T08:38:07;96942.00;;;18.51;76.17
77003;BME280;65939;50.060;14.288;2023-05-16T08:40:09;96947.38;;;18.37;75.27
77003;BME280;65939;50.060;14.288;2023-05-16T08:42:10;96948.19;;;18.38;74.70
77003;BME280;65939;50.060;14.288;2023-05-16T08:44:11;96954.47;;;18.43;74.50
77003;BME280;65939;50.060;14.288;2023-05-16T08:46:21;96957.66;;;18.52;74.94
77003;BME280;65939;50.060;14.288;2023-05-16T08:48:23;96959.41;;;18.65;75.23
77003;BME280;65939;50.060;14.288;2023-05-16T08:50:29;96952.41;;;18.71;75.10
77003;BME280;65939;50.060;14.288;2023-05-16T08:52:32;96957.66;;;18.84;74.36
77003;BME280;65939;50.060;14.288;2023-05-16T08:54:33;96948.78;;;18.97;74.14
77003;BME280;65939;50.060;14.288;2023-05-16T08:56:35;96946.72;;;18.99;73.51
77003;BME280;65939;50.060;14.288;2023-05-16T08:58:37;96944.03;;;19.05;73.87
77003;BME280;65939;50.060;14.288;2023-05-16T09:00:39;96950.50;;;19.09;73.86
77003;BME280;65939;50.060;14.288;2023-05-16T09:02:41;96944.97;;;18.93;74.31
77003;BME280;65939;50.060;14.288;2023-05-16T09:04:44;96940.97;;;18.83;74.07
77003;BME280;65939;50.060;14.288;2023-05-16T09:06:47;96946.88;;;18.85;74.36
77003;BME280;65939;50.060;14.288;2023-05-16T09:08:47;96946.22;;;18.90;74.81
77003;BME280;65939;50.060;14.288;2023-05-16T09:10:48;96948.91;;;18.83;74.32
77003;BME280;65939;50.060;14.288;2023-05-16T09:12:49;96954.81;;;18.85;74.79
77003;BME280;65939;50.060;14.288;2023-05-16T09:14:50;96953.97;;;18.85;73.41
77003;BME280;65939;50.060;14.288;2023-05-16T09:17:05;96955.22;;;18.82;74.42
77003;BME280;65939;50.060;14.288;2023-05-16T09:19:06;96957.59;;;18.90;74.45
77003;BME280;65939;50.060;14.288;2023-05-16T09:21:06;96962.06;;;18.90;74.26
77003;BME280;65939;50.060;14.288;2023-05-16T09:23:08;96961.91;;;18.85;74.27
77003;BME280;65939;50.060;14.288;2023-05-16T09:25:15;96961.00;;;18.73;73.71
77003;BME280;65939;50.060;14.288;2023-05-16T09:27:16;96967.88;;;18.74;74.69
77003;BME280;65939;50.060;14.288;2023-05-16T09:29:17;96966.47;;;18.71;73.61
77003;BME280;65939;50.060;14.288;2023-05-16T09:31:24;96974.81;;;18.43;73.45
77003;BME280;65939;50.060;14.288;2023-05-16T09:33:41;96966.53;;;18.33;74.77
77003;BME280;65939;50.060;14.288;2023-05-16T09:35:41;96959.03;;;18.30;74.38
77003;BME280;65939;50.060;14.288;2023-05-16T09:37:49;96956.47;;;18.10;74.14
77003;BME280;65939;50.060;14.288;2023-05-16T09:39:53;96951.34;;;17.83;74.64
77003;BME280;65939;50.060;14.288;2023-05-16T09:41:58;96950.78;;;17.61;74.91
77003;BME280;65939;50.060;14.288;2023-05-16T09:43:58;96949.22;;;17.40;75.47
77003;BME280;65939;50.060;14.288;2023-05-16T09:46:03;96947.38;;;17.41;76.41
77003;BME280;65939;50.060;14.288;2023-05-16T09:48:05;96944.06;;;17.59;77.09
77003;BME280;65939;50.060;14.288;2023-05-16T09:50:07;96954.22;;;17.68;76.22
77003;BME280;65939;50.060;14.288;2023-05-16T09:52:08;96954.59;;;17.79;76.55
77003;BME280;65939;50.060;14.288;2023-05-16T09:54:09;96953.56;;;17.86;76.87
77003;BME280;65939;50.060;14.288;2023-05-16T09:56:12;96957.94;;;17.99;75.53
77003;BME280;65939;50.060;14.288;2023-05-16T09:58:16;96967.53;;;17.93;74.89
77003;BME280;65939;50.060;14.288;2023-05-16T10:00:17;96963.72;;;17.89;74.05
77003;BME280;65939;50.060;14.288;2023-05-16T10:02:18;96956.81;;;17.82;73.01
77003;BME280;65939;50.060;14.288;2023-05-16T10:04:19;96956.19;;;17.86;73.44
77003;BME280;65939;50.060;14.288;2023-05-16T10:06:20;96950.06;;;17.92;73.64
77003;BME280;65939;50.060;14.288;2023-05-16T10:08:24;96947.09;;;18.14;74.50
77003;BME280;65939;50.060;14.288;2023-05-16T10:10:26;96943.75;;;18.32;73.45
77003;BME280;65939;50.060;14.288;2023-05-16T10:12:29;96947.91;;;18.46;72.97
77003;BME280;65939;50.060;14.288;2023-05-16T10:14:37;96931.63;;;18.49;71.37
77003;BME280;65939;50.060;14.288;2023-05-16T10:16:42;96936.81;;;18.37;70.79
77003;BME280;65939;50.060;14.288;2023-05-16T10:18:44;96930.78;;;18.24;70.82
77003;BME280;65939;50.060;14.288;2023-05-16T10:20:47;96928.75;;;18.26;70.85
77003;BME280;65939;50.060;14.288;2023-05-16T10:22:52;96927.66;;;18.40;70.17
77003;BME280;65939;50.060;14.288;2023-05-16T10:25:13;96943.72;;;18.63;70.30
77003;BME280;65939;50.060;14.288;2023-05-16T10:27:16;96931.09;;;18.72;69.20
77003;BME280;65939;50.060;14.288;2023-05-16T10:29:18;96922.03;;;18.86;68.77
77003;BME280;65939;50.060;14.288;2023-05-16T10:31:19;96920.88;;;19.01;68.38
77003;BME280;65939;50.060;14.288;2023-05-16T10:33:20;96917.13;;;19.08;68.73
77003;BME280;65939;50.060;14.288;2023-05-16T10:35:22;96920.63;;;19.02;68.40
77003;BME280;65939;50.060;14.288;2023-05-16T10:37:23;96923.16;;;18.97;68.67
77003;BME280;65939;50.060;14.288;2023-05-16T10:39:26;96933.09;;;18.77;68.81
77003;BME280;65939;50.060;14.288;2023-05-16T10:41:29;96923.28;;;18.52;68.77
77003;BME280;65939;50.060;14.288;2023-05-16T10:43:30;96931.84;;;18.48;69.03
77003;BME280;65939;50.060;14.288;2023-05-16T10:45:33;96932.75;;;18.35;69.63
77003;BME280;65939;50.060;14.288;2023-05-16T10:47:34;96923.44;;;18.32;70.55